Time;durP1;ratioP1;P1;durP2;ratioP2;P2;SDS_P1;SDS_P2;PMS_P1;PMS_P2;Temp;Humidity;BMP_temperature;BMP_pressure;BME280_temperature;BME280_humidity;BME280_pressure;Samples;Min_cycle;Max_cycle;Signal;HPM_P1;HPM_P2
2021/03/20 00:00:31;;;;;;;;;;;11.70;53.20;;;;;;2098920;28;708;-47
2021/03/20 00:01:50;;;;;;;;;;;11.70;53.80;;;;;;2099571;28;688;-46
2021/03/20 00:03:09;;;;;;;;;;;11.70;53.30;;;;;;2099468;28;761;-47
2021/03/20 00:04:28;;;;;;;;;;;11.70;53.30;;;;;;2098612;28;775;-46
2021/03/20 00:05:48;;;;;;;;;;;11.70;53.30;;;;;;2098674;28;802;-48
2021/03/20 00:07:07;;;;;;;;;;;11.70;53.30;;;;;;2092538;28;1167;-46
2021/03/20 00:08:26;;;;;;;;;;;11.70;53.30;;;;;;2091034;28;1131;-49
2021/03/20 00:09:52;;;;;;;;;;;11.70;53.30;;;;;;2098319;28;1478;-46
2021/03/20 00:11:11;;;;;;;;;;;11.70;53.90;;;;;;2099196;28;783;-49
2021/03/20 00:12:31;;;;;;;;;;;11.70;53.40;;;;;;2098646;28;722;-48
2021/03/20 00:13:50;;;;;;;;;;;11.60;53.40;;;;;;2099017;28;1209;-46
2021/03/20 00:15:09;;;;;;;;;;;11.70;53.50;;;;;;2089842;28;733;-48
2021/03/20 00:16:28;;;;;;;;;;;11.70;53.40;;;;;;2092195;28;784;-47
2021/03/20 00:17:48;;;;;;;;;;;11.60;53.30;;;;;;2098660;28;1960;-47
2021/03/20 00:19:07;;;;;;;;;;;11.70;54.00;;;;;;2099379;28;803;-48
2021/03/20 00:20:29;;;;;;;;;;;11.60;53.90;;;;;;2099155;28;744;-48
2021/03/20 00:21:48;;;;;;;;;;;11.60;53.40;;;;;;2099128;28;727;-46
2021/03/20 00:23:07;;;;;;;;;;;11.60;53.40;;;;;;2098486;28;735;-47
2021/03/20 00:24:26;;;;;;;;;;;11.60;53.40;;;;;;2098551;28;750;-46
2021/03/20 00:25:45;;;;;;;;;;;11.60;53.50;;;;;;2098851;28;747;-47
2021/03/20 00:27:05;;;;;;;;;;;11.60;53.50;;;;;;2099113;28;720;-46
2021/03/20 00:28:25;;;;;;;;;;;11.60;53.50;;;;;;2099131;28;755;-47
2021/03/20 00:29:44;;;;;;;;;;;11.60;53.50;;;;;;2098615;28;1388;-48
2021/03/20 00:31:09;;;;;;;;;;;11.60;53.50;;;;;;2098802;28;768;-49
2021/03/20 00:32:28;;;;;;;;;;;11.60;53.50;;;;;;2098932;28;714;-48
2021/03/20 00:33:47;;;;;;;;;;;11.60;53.50;;;;;;2099165;28;851;-48
2021/03/20 00:35:07;;;;;;;;;;;11.60;53.50;;;;;;2098116;28;769;-50
2021/03/20 00:36:26;;;;;;;;;;;11.60;53.50;;;;;;2094477;28;948;-48
2021/03/20 00:37:45;;;;;;;;;;;11.60;53.50;;;;;;2095994;28;1011;-48
2021/03/20 00:39:05;;;;;;;;;;;11.60;53.60;;;;;;2095139;28;1131;-47
2021/03/20 00:40:25;;;;;;;;;;;11.60;53.60;;;;;;2098057;28;726;-48
2021/03/20 00:41:45;;;;;;;;;;;11.60;53.60;;;;;;2095397;28;759;-47
2021/03/20 00:43:04;;;;;;;;;;;11.60;54.10;;;;;;2098633;28;754;-47
2021/03/20 00:44:23;;;;;;;;;;;11.60;53.60;;;;;;2090053;28;736;-48
2021/03/20 00:45:42;;;;;;;;;;;11.60;54.10;;;;;;2094758;28;784;-48
2021/03/20 00:47:02;;;;;;;;;;;11.50;53.60;;;;;;2098112;28;743;-48
2021/03/20 00:48:28;;;;;;;;;;;11.60;53.60;;;;;;2098662;28;774;-47
2021/03/20 00:49:47;;;;;;;;;;;11.60;53.60;;;;;;2098143;28;1437;-46
2021/03/20 00:51:06;;;;;;;;;;;11.60;53.60;;;;;;2094781;28;790;-46
2021/03/20 00:52:26;;;;;;;;;;;11.50;53.60;;;;;;2098611;28;784;-46
2021/03/20 00:53:46;;;;;;;;;;;11.50;53.60;;;;;;2098841;28;995;-47
2021/03/20 00:55:06;;;;;;;;;;;11.50;54.10;;;;;;2098293;28;775;-47
2021/03/20 00:56:25;;;;;;;;;;;11.50;53.50;;;;;;2099208;28;748;-48
2021/03/20 00:57:44;;;;;;;;;;;11.50;53.50;;;;;;2098994;28;719;-49
2021/03/20 00:59:03;;;;;;;;;;;11.50;53.50;;;;;;2098809;28;772;-48
2021/03/20 01:00:23;;;;;;;;;;;11.50;53.50;;;;;;2098916;28;772;-47
2021/03/20 01:01:43;;;;;;;;;;;11.50;53.50;;;;;;2098905;28;736;-48
2021/03/20 01:03:02;;;;;;;;;;;11.50;53.60;;;;;;2098734;28;715;-48
2021/03/20 01:04:21;;;;;;;;;;;11.50;53.60;;;;;;2098247;28;763;-48
2021/03/20 01:05:41;;;;;;;;;;;11.50;53.50;;;;;;2098021;28;1042;-47
2021/03/20 01:07:00;;;;;;;;;;;11.50;53.60;;;;;;2090662;28;949;-48
2021/03/20 01:08:19;;;;;;;;;;;11.50;53.60;;;;;;2091167;28;924;-47
2021/03/20 01:09:38;;;;;;;;;;;11.50;53.60;;;;;;2092970;28;1350;-47
2021/03/20 01:10:57;;;;;;;;;;;11.50;54.10;;;;;;2097717;28;729;-48
2021/03/20 01:12:16;;;;;;;;;;;11.50;54.10;;;;;;2097226;28;789;-47
2021/03/20 01:13:36;;;;;;;;;;;11.50;53.60;;;;;;2097354;28;919;-47
2021/03/20 01:14:55;;;;;;;;;;;11.50;53.60;;;;;;2093520;28;777;-46
2021/03/20 01:16:14;;;;;;;;;;;11.60;53.60;;;;;;2094101;28;768;-47
2021/03/20 01:17:34;;;;;;;;;;;11.50;53.50;;;;;;2098720;28;751;-46
2021/03/20 01:18:53;;;;;;;;;;;11.50;53.50;;;;;;2096904;28;736;-49
2021/03/20 01:20:12;;;;;;;;;;;11.60;53.60;;;;;;2097525;28;1356;-46
2021/03/20 01:21:31;;;;;;;;;;;11.50;53.40;;;;;;2096916;28;745;-48
2021/03/20 01:22:50;;;;;;;;;;;11.60;53.50;;;;;;2097523;28;838;-47
2021/03/20 01:24:10;;;;;;;;;;;11.60;53.50;;;;;;2098497;28;759;-49
2021/03/20 01:25:29;;;;;;;;;;;11.60;54.00;;;;;;2097800;28;729;-48
2021/03/20 01:26:48;;;;;;;;;;;11.60;53.50;;;;;;2098396;28;803;-49
2021/03/20 01:28:07;;;;;;;;;;;11.60;53.50;;;;;;2098525;28;709;-48
2021/03/20 01:29:26;;;;;;;;;;;11.60;53.90;;;;;;2097225;28;1444;-48
2021/03/20 01:30:45;;;;;;;;;;;11.60;53.70;;;;;;2090924;28;961;-48
2021/03/20 01:32:05;;;;;;;;;;;11.60;53.40;;;;;;2095658;28;1361;-48
2021/03/20 01:33:24;;;;;;;;;;;11.60;53.50;;;;;;2098442;28;735;-48
2021/03/20 01:34:43;;;;;;;;;;;11.60;53.50;;;;;;2089636;28;756;-46
2021/03/20 01:36:03;;;;;;;;;;;11.60;53.40;;;;;;2095141;28;700;-49
2021/03/20 01:37:22;;;;;;;;;;;11.60;53.40;;;;;;2098000;28;758;-50
2021/03/20 01:38:42;;;;;;;;;;;11.60;53.40;;;;;;2094783;28;1906;-46
2021/03/20 01:40:02;;;;;;;;;;;11.60;53.30;;;;;;2094759;28;1361;-48
2021/03/20 01:41:23;;;;;;;;;;;11.60;53.40;;;;;;2086427;28;726;-47
2021/03/20 01:42:42;;;;;;;;;;;11.60;53.30;;;;;;2083508;28;739;-51
2021/03/20 01:44:01;;;;;;;;;;;11.60;53.30;;;;;;2088663;28;743;-53
2021/03/20 01:45:27;;;;;;;;;;;11.60;53.90;;;;;;2097348;28;746;-49
2021/03/20 01:46:51;;;;;;;;;;;11.60;53.30;;;;;;2097415;28;709;-49
2021/03/20 01:48:11;;;;;;;;;;;11.60;53.30;;;;;;2095855;28;743;-50
2021/03/20 01:49:37;;;;;;;;;;;11.60;53.90;;;;;;2090564;28;1368;-49
2021/03/20 01:50:57;;;;;;;;;;;11.60;53.30;;;;;;2098368;28;733;-53
2021/03/20 01:52:23;;;;;;;;;;;11.60;53.30;;;;;;2097878;28;756;-51
2021/03/20 01:53:46;;;;;;;;;;;11.60;53.30;;;;;;2095313;28;759;-51
2021/03/20 01:55:06;;;;;;;;;;;11.60;53.40;;;;;;2094430;28;726;-50
2021/03/20 01:56:28;;;;;;;;;;;11.60;53.40;;;;;;2094903;28;804;-52
2021/03/20 01:57:48;;;;;;;;;;;11.60;53.40;;;;;;2094820;28;789;-49
2021/03/20 01:59:07;;;;;;;;;;;11.60;53.40;;;;;;2084044;28;1038;-49
2021/03/20 02:00:35;;;;;;;;;;;11.50;53.90;;;;;;2091323;28;747;-50
2021/03/20 02:01:54;;;;;;;;;;;11.60;53.40;;;;;;2081692;28;718;-50
2021/03/20 02:03:17;;;;;;;;;;;11.60;53.40;;;;;;2081876;28;713;-48
2021/03/20 02:04:36;;;;;;;;;;;11.60;53.40;;;;;;2081737;28;786;-49
2021/03/20 02:05:56;;;;;;;;;;;11.60;53.40;;;;;;2081613;28;715;-47
2021/03/20 02:07:15;;;;;;;;;;;11.60;53.50;;;;;;2081309;28;783;-47
2021/03/20 02:08:38;;;;;;;;;;;11.60;53.50;;;;;;2078038;28;761;-50
2021/03/20 02:09:57;;;;;;;;;;;11.60;53.40;;;;;;2072937;28;1342;-47
2021/03/20 02:11:23;;;;;;;;;;;11.60;53.50;;;;;;2078608;28;737;-50
2021/03/20 02:12:42;;;;;;;;;;;11.60;53.40;;;;;;2081312;28;756;-51
2021/03/20 02:14:04;;;;;;;;;;;11.60;53.50;;;;;;2070014;28;779;-52
2021/03/20 02:15:28;;;;;;;;;;;11.60;53.50;;;;;;2066729;28;748;-48
2021/03/20 02:16:49;;;;;;;;;;;11.60;53.40;;;;;;2076254;28;769;-49
2021/03/20 02:18:26;;;;;;;;;;;11.60;53.40;;;;;;2078529;28;1974;-46
2021/03/20 02:19:51;;;;;;;;;;;11.60;53.40;;;;;;2081675;28;1336;-51
2021/03/20 02:21:11;;;;;;;;;;;11.50;53.30;;;;;;2081460;28;761;-50
2021/03/20 02:22:49;;;;;;;;;;;11.60;53.40;;;;;;2081191;28;737;-49
2021/03/20 02:24:28;;;;;;;;;;;11.50;53.40;;;;;;2080654;28;721;-48
2021/03/20 02:25:50;;;;;;;;;;;11.50;53.40;;;;;;2081269;28;813;-48
2021/03/20 02:27:28;;;;;;;;;;;11.60;53.50;;;;;;2080734;28;710;-48
2021/03/20 02:28:50;;;;;;;;;;;11.50;53.40;;;;;;2088437;28;952;-47
2021/03/20 02:30:15;;;;;;;;;;;11.50;53.90;;;;;;2092600;28;1474;-48
2021/03/20 02:31:37;;;;;;;;;;;11.50;53.50;;;;;;2081174;28;762;-48
2021/03/20 02:33:05;;;;;;;;;;;11.50;53.50;;;;;;2078293;28;790;-48
2021/03/20 02:34:37;;;;;;;;;;;11.50;53.50;;;;;;2080841;28;725;-49
2021/03/20 02:36:04;;;;;;;;;;;11.50;53.50;;;;;;2080839;28;793;-49
2021/03/20 02:37:42;;;;;;;;;;;11.50;53.50;;;;;;2078909;28;722;-50
2021/03/20 02:39:03;;;;;;;;;;;11.50;54.00;;;;;;2081825;28;711;-49
2021/03/20 02:40:26;;;;;;;;;;;11.50;53.50;;;;;;2081180;28;787;-50
2021/03/20 02:41:50;;;;;;;;;;;11.50;53.50;;;;;;2078350;28;800;-49
2021/03/20 02:43:09;;;;;;;;;;;11.50;53.50;;;;;;2081666;28;809;-48
2021/03/20 02:44:33;;;;;;;;;;;11.50;53.40;;;;;;2078689;28;808;-49
2021/03/20 02:45:53;;;;;;;;;;;11.50;53.40;;;;;;2075388;28;860;-48
2021/03/20 02:47:13;;;;;;;;;;;11.50;53.50;;;;;;2068429;28;793;-48
2021/03/20 02:48:41;;;;;;;;;;;11.50;53.40;;;;;;2074678;28;860;-48
2021/03/20 02:50:05;;;;;;;;;;;11.50;53.50;;;;;;2074002;28;1405;-48
2021/03/20 02:51:39;;;;;;;;;;;11.50;53.50;;;;;;2078364;28;814;-49
2021/03/20 02:53:02;;;;;;;;;;;11.50;53.50;;;;;;2078812;28;807;-49
2021/03/20 02:54:21;;;;;;;;;;;11.50;53.50;;;;;;2077463;28;832;-46
2021/03/20 02:55:41;;;;;;;;;;;11.50;53.50;;;;;;2075131;28;801;-49
2021/03/20 02:57:03;;;;;;;;;;;11.50;53.50;;;;;;2077906;28;778;-49
2021/03/20 02:58:27;;;;;;;;;;;11.50;53.50;;;;;;2078929;28;1898;-47
2021/03/20 02:59:51;;;;;;;;;;;11.50;53.50;;;;;;2080862;28;1360;-47
2021/03/20 03:01:11;;;;;;;;;;;11.50;53.50;;;;;;2078364;28;1056;-48
2021/03/20 03:02:30;;;;;;;;;;;11.50;53.60;;;;;;2086508;28;764;-47
2021/03/20 03:03:49;;;;;;;;;;;11.50;53.50;;;;;;2089251;28;737;-48
2021/03/20 03:05:16;;;;;;;;;;;11.50;53.50;;;;;;2085266;28;750;-47
2021/03/20 03:06:37;;;;;;;;;;;11.50;53.60;;;;;;2089388;28;732;-48
2021/03/20 03:07:58;;;;;;;;;;;11.50;54.10;;;;;;2089247;28;733;-48
2021/03/20 03:09:43;;;;;;;;;;;11.50;53.60;;;;;;2086038;28;936;-48
2021/03/20 03:11:02;;;;;;;;;;;11.50;53.60;;;;;;2089172;28;750;-48
2021/03/20 03:12:23;;;;;;;;;;;11.50;53.60;;;;;;2089226;28;962;-48
2021/03/20 03:13:54;;;;;;;;;;;11.50;53.60;;;;;;2088616;28;781;-47
2021/03/20 03:15:15;;;;;;;;;;;11.50;53.60;;;;;;2086594;28;754;-48
2021/03/20 03:16:36;;;;;;;;;;;11.50;53.60;;;;;;2086044;28;737;-48
2021/03/20 03:17:59;;;;;;;;;;;11.50;53.60;;;;;;2085216;28;1906;-48
2021/03/20 03:19:36;;;;;;;;;;;11.50;53.60;;;;;;2086388;28;1381;-48
2021/03/20 03:20:56;;;;;;;;;;;11.50;53.60;;;;;;2088603;28;920;-50
2021/03/20 03:22:23;;;;;;;;;;;11.50;53.60;;;;;;2085740;28;753;-49
2021/03/20 03:23:42;;;;;;;;;;;11.40;53.50;;;;;;2089238;28;1387;-48
2021/03/20 03:25:04;;;;;;;;;;;11.50;53.60;;;;;;2089011;28;771;-47
2021/03/20 03:26:27;;;;;;;;;;;11.40;54.00;;;;;;2088741;28;723;-46
2021/03/20 03:27:47;;;;;;;;;;;11.40;54.00;;;;;;2079086;28;1943;-48
2021/03/20 03:29:10;;;;;;;;;;;11.40;53.50;;;;;;2084350;28;881;-47
2021/03/20 03:30:30;;;;;;;;;;;11.40;53.50;;;;;;2096914;28;891;-47
2021/03/20 03:32:07;;;;;;;;;;;11.40;53.50;;;;;;2089037;28;980;-51
2021/03/20 03:33:28;;;;;;;;;;;11.40;53.60;;;;;;2095182;28;1185;-47
2021/03/20 03:34:54;;;;;;;;;;;11.40;53.50;;;;;;2095992;28;1119;-48
2021/03/20 03:36:13;;;;;;;;;;;11.40;53.50;;;;;;2097320;28;729;-48
2021/03/20 03:37:47;;;;;;;;;;;11.40;53.60;;;;;;2097619;28;731;-47
2021/03/20 03:39:13;;;;;;;;;;;11.40;53.60;;;;;;2087016;28;1428;-48
2021/03/20 03:40:40;;;;;;;;;;;11.40;53.60;;;;;;2082211;28;962;-48
2021/03/20 03:41:59;;;;;;;;;;;11.40;53.60;;;;;;2087579;28;721;-47
2021/03/20 03:43:19;;;;;;;;;;;11.40;53.60;;;;;;2089952;28;733;-46
2021/03/20 03:44:41;;;;;;;;;;;11.40;53.70;;;;;;2089771;28;723;-48
2021/03/20 03:46:00;;;;;;;;;;;11.40;53.60;;;;;;2086369;28;740;-47
2021/03/20 03:47:20;;;;;;;;;;;11.40;53.70;;;;;;2077674;28;745;-47
2021/03/20 03:48:40;;;;;;;;;;;11.40;53.60;;;;;;2083442;28;779;-48
2021/03/20 03:49:59;;;;;;;;;;;11.40;53.70;;;;;;2086099;28;1275;-49
2021/03/20 03:51:18;;;;;;;;;;;11.40;53.70;;;;;;2078039;28;716;-49
2021/03/20 03:52:38;;;;;;;;;;;11.40;53.70;;;;;;2086666;28;703;-48
2021/03/20 03:53:57;;;;;;;;;;;11.40;53.70;;;;;;2089951;28;730;-48
2021/03/20 03:55:16;;;;;;;;;;;11.40;54.20;;;;;;2080870;28;765;-47
2021/03/20 03:56:41;;;;;;;;;;;11.40;54.30;;;;;;2086550;28;809;-48
2021/03/20 03:58:10;;;;;;;;;;;11.40;53.70;;;;;;2090031;28;1968;-50
2021/03/20 03:59:48;;;;;;;;;;;11.40;53.70;;;;;;2089098;28;1328;-49
2021/03/20 04:01:09;;;;;;;;;;;11.40;53.70;;;;;;2092711;28;1091;-49
2021/03/20 04:02:37;;;;;;;;;;;11.40;53.70;;;;;;2089107;28;808;-49
2021/03/20 04:04:01;;;;;;;;;;;11.40;53.70;;;;;;2089890;28;733;-51
2021/03/20 04:05:26;;;;;;;;;;;11.40;53.70;;;;;;2088497;28;736;-46
2021/03/20 04:06:54;;;;;;;;;;;11.40;53.80;;;;;;2089313;28;739;-47
2021/03/20 04:08:18;;;;;;;;;;;11.30;53.70;;;;;;2089026;28;731;-50
2021/03/20 04:09:55;;;;;;;;;;;11.30;53.70;;;;;;2086272;28;1365;-49
2021/03/20 04:11:20;;;;;;;;;;;11.30;53.70;;;;;;2091068;28;732;-50
2021/03/20 04:12:54;;;;;;;;;;;11.30;53.70;;;;;;2090539;28;765;-52
2021/03/20 04:14:16;;;;;;;;;;;11.30;53.70;;;;;;2090766;28;907;-48
2021/03/20 04:15:43;;;;;;;;;;;11.30;53.70;;;;;;2088600;28;1808;-50
2021/03/20 04:17:15;;;;;;;;;;;11.30;53.70;;;;;;2090792;28;1031;-48
2021/03/20 04:18:39;;;;;;;;;;;11.30;53.70;;;;;;2082744;28;1906;-52
2021/03/20 04:20:00;;;;;;;;;;;11.30;53.70;;;;;;2087592;28;1363;-48
2021/03/20 04:21:38;;;;;;;;;;;11.30;53.80;;;;;;2087735;28;729;-49
2021/03/20 04:22:58;;;;;;;;;;;11.30;53.70;;;;;;2091563;28;674;-49
2021/03/20 04:24:44;;;;;;;;;;;11.30;53.80;;;;;;2089497;28;1439;-49
2021/03/20 04:26:08;;;;;;;;;;;11.30;53.80;;;;;;2087868;28;1063;-51
2021/03/20 04:27:28;;;;;;;;;;;11.30;53.70;;;;;;2090832;28;717;-49
2021/03/20 04:28:51;;;;;;;;;;;11.30;53.70;;;;;;2090357;28;956;-50
2021/03/20 04:30:13;;;;;;;;;;;11.30;53.80;;;;;;2082046;28;1382;-54
2021/03/20 04:31:35;;;;;;;;;;;11.30;53.80;;;;;;2095387;28;717;-50
2021/03/20 04:32:57;;;;;;;;;;;11.30;53.80;;;;;;2089715;28;721;-49
2021/03/20 04:34:16;;;;;;;;;;;11.30;53.80;;;;;;2097722;28;729;-49
2021/03/20 04:35:36;;;;;;;;;;;11.30;53.80;;;;;;2098684;28;698;-53
2021/03/20 04:36:56;;;;;;;;;;;11.30;53.80;;;;;;2098272;28;714;-49
2021/03/20 04:38:15;;;;;;;;;;;11.30;54.40;;;;;;2089304;28;1898;-50
2021/03/20 04:39:35;;;;;;;;;;;11.30;53.90;;;;;;2089155;28;1535;-51
2021/03/20 04:40:55;;;;;;;;;;;11.30;54.00;;;;;;2085527;28;1626;-50
2021/03/20 04:42:16;;;;;;;;;;;11.30;54.00;;;;;;2086315;28;1028;-52
2021/03/20 04:43:35;;;;;;;;;;;11.30;54.00;;;;;;2089192;28;760;-50
2021/03/20 04:44:54;;;;;;;;;;;11.30;53.90;;;;;;2083684;28;1432;-54
2021/03/20 04:46:21;;;;;;;;;;;11.40;54.00;;;;;;2093542;28;1366;-49
2021/03/20 04:47:40;;;;;;;;;;;11.40;53.80;;;;;;2095532;28;1163;-49
2021/03/20 04:49:07;;;;;;;;;;;11.50;53.70;;;;;;2097185;28;1366;-49
2021/03/20 04:50:27;;;;;;;;;;;11.60;53.70;;;;;;2092878;28;1163;-47
2021/03/20 04:51:47;;;;;;;;;;;11.60;53.50;;;;;;2081326;28;1302;-49
2021/03/20 04:53:06;;;;;;;;;;;11.70;53.90;;;;;;2088332;28;1256;-47
2021/03/20 04:54:26;;;;;;;;;;;11.70;53.30;;;;;;2086888;28;1250;-46
2021/03/20 04:55:46;;;;;;;;;;;11.80;53.20;;;;;;2086838;28;1262;-51
2021/03/20 04:57:25;;;;;;;;;;;11.80;53.00;;;;;;2086504;28;1376;-48
2021/03/20 04:58:51;;;;;;;;;;;11.90;52.90;;;;;;2089059;28;1980;-51
2021/03/20 05:00:11;;;;;;;;;;;12.00;52.80;;;;;;2081154;28;1433;-52
2021/03/20 05:01:30;;;;;;;;;;;12.00;52.60;;;;;;2087345;28;1211;-47
2021/03/20 05:03:08;;;;;;;;;;;12.00;52.50;;;;;;2089259;28;1340;-53
2021/03/20 05:04:29;;;;;;;;;;;12.10;52.40;;;;;;2090867;28;1292;-49
2021/03/20 05:05:49;;;;;;;;;;;12.10;52.20;;;;;;2089512;28;1434;-50
2021/03/20 05:07:09;;;;;;;;;;;12.20;52.20;;;;;;2086566;28;1337;-50
2021/03/20 05:08:38;;;;;;;;;;;12.20;52.60;;;;;;2086617;28;1078;-50
2021/03/20 05:09:57;;;;;;;;;;;12.20;52.00;;;;;;2084591;28;1595;-50
2021/03/20 05:11:16;;;;;;;;;;;12.20;52.00;;;;;;2090757;28;1334;-47
2021/03/20 05:12:36;;;;;;;;;;;12.20;52.00;;;;;;2091105;28;1462;-50
2021/03/20 05:14:00;;;;;;;;;;;12.20;52.50;;;;;;2093010;28;1233;-52
2021/03/20 05:15:24;;;;;;;;;;;12.20;52.00;;;;;;2091413;28;1204;-53
2021/03/20 05:16:50;;;;;;;;;;;12.20;52.00;;;;;;2091073;28;1332;-52
2021/03/20 05:18:10;;;;;;;;;;;12.20;52.00;;;;;;2085923;28;1977;-53
2021/03/20 05:19:29;;;;;;;;;;;12.20;52.10;;;;;;2087905;28;1560;-50
2021/03/20 05:20:48;;;;;;;;;;;12.10;52.10;;;;;;2088987;28;1261;-53
2021/03/20 05:22:11;;;;;;;;;;;12.20;52.20;;;;;;2088630;28;1224;-50
2021/03/20 05:23:30;;;;;;;;;;;12.10;52.10;;;;;;2091360;28;1282;-52
2021/03/20 05:24:49;;;;;;;;;;;12.10;52.20;;;;;;2089287;28;1379;-50
2021/03/20 05:26:08;;;;;;;;;;;12.10;52.20;;;;;;2083387;28;1399;-50
2021/03/20 05:27:28;;;;;;;;;;;12.10;52.80;;;;;;2090790;28;1310;-52
2021/03/20 05:28:48;;;;;;;;;;;12.10;52.30;;;;;;2091522;28;1280;-51
2021/03/20 05:30:07;;;;;;;;;;;12.10;52.30;;;;;;2088211;28;1417;-48
2021/03/20 05:31:27;;;;;;;;;;;12.10;52.40;;;;;;2088821;28;1234;-50
2021/03/20 05:32:46;;;;;;;;;;;12.00;52.30;;;;;;2092943;28;1417;-54
2021/03/20 05:34:05;;;;;;;;;;;12.00;52.40;;;;;;2093482;28;1320;-48
2021/03/20 05:35:25;;;;;;;;;;;12.00;52.40;;;;;;2084808;28;1395;-48
2021/03/20 05:36:44;;;;;;;;;;;12.00;52.50;;;;;;2090950;28;1155;-50
2021/03/20 05:38:04;;;;;;;;;;;12.00;52.50;;;;;;2093323;28;1902;-52
2021/03/20 05:39:23;;;;;;;;;;;12.00;52.60;;;;;;2088389;28;1427;-50
2021/03/20 05:40:42;;;;;;;;;;;12.00;52.60;;;;;;2087705;28;1391;-53
2021/03/20 05:42:08;;;;;;;;;;;12.00;53.20;;;;;;2091027;28;1222;-47
2021/03/20 05:43:43;;;;;;;;;;;12.00;52.70;;;;;;2094094;28;1296;-50
2021/03/20 05:45:18;;;;;;;;;;;12.00;52.80;;;;;;2088562;28;1248;-47
2021/03/20 05:46:43;;;;;;;;;;;11.90;52.70;;;;;;2089931;28;1369;-50
2021/03/20 05:48:02;;;;;;;;;;;11.90;52.70;;;;;;2090360;28;1309;-52
2021/03/20 05:49:31;;;;;;;;;;;11.90;52.80;;;;;;2092277;28;1852;-51
2021/03/20 05:50:52;;;;;;;;;;;11.90;52.80;;;;;;2093266;28;1360;-50
2021/03/20 05:52:32;;;;;;;;;;;11.90;52.90;;;;;;2088217;28;1434;-50
2021/03/20 05:53:51;;;;;;;;;;;11.90;53.50;;;;;;2089750;28;1274;-53
2021/03/20 05:55:11;;;;;;;;;;;11.90;52.90;;;;;;2087644;28;1689;-50
2021/03/20 05:56:49;;;;;;;;;;;11.80;52.90;;;;;;2092595;28;1353;-51
2021/03/20 05:58:15;;;;;;;;;;;11.80;52.90;;;;;;2092744;28;1902;-51
2021/03/20 05:59:45;;;;;;;;;;;11.80;53.00;;;;;;2090914;28;1417;-48
2021/03/20 06:01:07;;;;;;;;;;;11.80;53.00;;;;;;2092255;28;1362;-50
2021/03/20 06:02:45;;;;;;;;;;;11.80;53.00;;;;;;2089392;28;1525;-50
2021/03/20 06:04:24;;;;;;;;;;;11.80;53.00;;;;;;2094010;28;1348;-49
2021/03/20 06:05:46;;;;;;;;;;;11.80;53.10;;;;;;2091880;28;1454;-47
2021/03/20 06:07:20;;;;;;;;;;;11.70;53.60;;;;;;2093033;28;1262;-48
2021/03/20 06:08:39;;;;;;;;;;;11.80;53.20;;;;;;2093381;28;1252;-49
2021/03/20 06:10:18;;;;;;;;;;;11.70;53.20;;;;;;2090872;28;1567;-49
2021/03/20 06:12:00;;;;;;;;;;;11.70;53.20;;;;;;2091196;28;1201;-51
2021/03/20 06:13:37;;;;;;;;;;;11.70;53.20;;;;;;2079246;28;1195;-52
2021/03/20 06:15:03;;;;;;;;;;;11.70;53.30;;;;;;2087312;28;1019;-50
2021/03/20 06:16:23;;;;;;;;;;;11.70;53.30;;;;;;2097106;28;861;-48
2021/03/20 06:17:57;;;;;;;;;;;11.70;53.30;;;;;;2084813;28;775;-49
2021/03/20 06:19:22;;;;;;;;;;;11.70;53.90;;;;;;2094469;28;756;-51
2021/03/20 06:20:54;;;;;;;;;;;11.70;53.40;;;;;;2097473;28;989;-49
2021/03/20 06:22:31;;;;;;;;;;;11.70;53.40;;;;;;2096926;28;749;-50
2021/03/20 06:24:05;;;;;;;;;;;11.70;53.50;;;;;;2096678;28;988;-48
2021/03/20 06:25:44;;;;;;;;;;;11.70;53.50;;;;;;2095689;28;768;-49
2021/03/20 06:27:04;;;;;;;;;;;11.70;53.50;;;;;;2097220;28;1014;-51
2021/03/20 06:28:34;;;;;;;;;;;11.60;54.10;;;;;;2088201;28;951;-50
2021/03/20 06:30:02;;;;;;;;;;;11.70;54.70;;;;;;2088361;28;1621;-51
2021/03/20 06:31:22;;;;;;;;;;;11.70;54.20;;;;;;2071667;28;1190;-48
2021/03/20 06:32:42;;;;;;;;;;;11.60;52.40;;;;;;2087734;28;765;-47
2021/03/20 06:34:04;;;;;;;;;;;11.60;52.60;;;;;;2094361;28;784;-48
2021/03/20 06:35:26;;;;;;;;;;;11.50;52.60;;;;;;2094034;28;760;-49
2021/03/20 06:36:55;;;;;;;;;;;11.50;52.30;;;;;;2097740;28;710;-49
2021/03/20 06:38:30;;;;;;;;;;;11.50;51.40;;;;;;2097671;28;1926;-49
2021/03/20 06:40:11;;;;;;;;;;;11.50;51.70;;;;;;2098188;28;1373;-49
2021/03/20 06:41:33;;;;;;;;;;;11.50;51.10;;;;;;2098255;28;797;-47
2021/03/20 06:42:52;;;;;;;;;;;11.50;51.10;;;;;;2098025;28;719;-47
2021/03/20 06:44:15;;;;;;;;;;;11.40;51.10;;;;;;2089627;28;726;-50
2021/03/20 06:45:34;;;;;;;;;;;11.40;51.20;;;;;;2091504;28;733;-47
2021/03/20 06:46:53;;;;;;;;;;;11.40;51.70;;;;;;2094039;28;728;-52
2021/03/20 06:48:14;;;;;;;;;;;11.40;51.10;;;;;;2097647;28;758;-48
2021/03/20 06:49:37;;;;;;;;;;;11.40;51.20;;;;;;2097355;28;1377;-50
2021/03/20 06:50:57;;;;;;;;;;;11.40;51.20;;;;;;2094727;28;941;-51
2021/03/20 06:52:17;;;;;;;;;;;11.40;51.10;;;;;;2094822;28;956;-47
2021/03/20 06:53:39;;;;;;;;;;;11.40;51.10;;;;;;2085915;28;804;-46
2021/03/20 06:55:00;;;;;;;;;;;11.40;51.60;;;;;;2094615;28;751;-54
2021/03/20 06:56:20;;;;;;;;;;;11.40;51.10;;;;;;2097905;28;739;-52
2021/03/20 06:57:39;;;;;;;;;;;11.40;51.10;;;;;;2097869;28;826;-47
2021/03/20 06:58:59;;;;;;;;;;;11.40;51.20;;;;;;2097239;28;1965;-49
2021/03/20 07:00:24;;;;;;;;;;;11.40;51.20;;;;;;2091286;28;1483;-50
2021/03/20 07:02:00;;;;;;;;;;;11.40;51.30;;;;;;2088814;28;944;-51
2021/03/20 07:03:25;;;;;;;;;;;11.40;51.30;;;;;;2096039;28;882;-47
2021/03/20 07:05:13;;;;;;;;;;;11.40;51.30;;;;;;2097786;28;1000;-49
2021/03/20 07:06:35;;;;;;;;;;;11.40;51.30;;;;;;2097500;28;1200;-51
2021/03/20 07:07:56;;;;;;;;;;;11.40;51.40;;;;;;2097546;28;762;-50
2021/03/20 07:09:16;;;;;;;;;;;11.40;51.40;;;;;;2086273;28;738;-50
2021/03/20 07:10:42;;;;;;;;;;;11.40;51.50;;;;;;2094461;28;724;-47
2021/03/20 07:12:10;;;;;;;;;;;11.40;51.50;;;;;;2089276;28;760;-48
2021/03/20 07:13:32;;;;;;;;;;;11.40;51.60;;;;;;2095832;28;714;-49
2021/03/20 07:14:53;;;;;;;;;;;11.40;51.70;;;;;;2097207;28;758;-48
2021/03/20 07:16:13;;;;;;;;;;;11.30;51.60;;;;;;2094117;28;753;-46
2021/03/20 07:17:35;;;;;;;;;;;11.30;51.60;;;;;;2094092;28;1423;-46
2021/03/20 07:18:58;;;;;;;;;;;11.30;51.70;;;;;;2094060;28;1981;-48
2021/03/20 07:20:19;;;;;;;;;;;11.30;51.80;;;;;;2086558;28;1369;-46
2021/03/20 07:21:39;;;;;;;;;;;11.30;51.80;;;;;;2091038;28;774;-47
2021/03/20 07:23:08;;;;;;;;;;;11.30;51.80;;;;;;2084410;28;783;-46
2021/03/20 07:24:37;;;;;;;;;;;11.30;51.80;;;;;;2085360;28;761;-47
2021/03/20 07:26:23;;;;;;;;;;;11.30;51.90;;;;;;2093538;28;875;-46
2021/03/20 07:27:42;;;;;;;;;;;11.30;51.90;;;;;;2097806;28;716;-47
2021/03/20 07:29:02;;;;;;;;;;;11.30;52.00;;;;;;2097304;28;877;-47
2021/03/20 07:30:30;;;;;;;;;;;11.30;52.00;;;;;;2092528;28;1775;-47
2021/03/20 07:31:54;;;;;;;;;;;11.30;52.50;;;;;;2094964;28;1015;-46
2021/03/20 07:33:21;;;;;;;;;;;11.30;52.00;;;;;;2088589;28;772;-46
2021/03/20 07:34:41;;;;;;;;;;;11.30;52.50;;;;;;2087155;28;770;-46
2021/03/20 07:36:15;;;;;;;;;;;11.30;52.10;;;;;;2086042;28;755;-46
2021/03/20 07:37:34;;;;;;;;;;;11.30;52.20;;;;;;2089644;28;774;-47
2021/03/20 07:39:02;;;;;;;;;;;11.30;52.20;;;;;;2088856;28;1961;-48
2021/03/20 07:40:25;;;;;;;;;;;11.30;52.20;;;;;;2089692;28;1412;-47
2021/03/20 07:41:44;;;;;;;;;;;11.20;52.20;;;;;;2090411;28;1311;-47
2021/03/20 07:43:13;;;;;;;;;;;11.30;52.20;;;;;;2089422;28;726;-47
2021/03/20 07:44:46;;;;;;;;;;;11.20;52.30;;;;;;2089626;28;699;-47
2021/03/20 07:46:06;;;;;;;;;;;11.20;52.30;;;;;;2081983;28;770;-46
2021/03/20 07:47:29;;;;;;;;;;;11.20;52.30;;;;;;2084293;28;744;-47
2021/03/20 07:48:48;;;;;;;;;;;11.20;52.30;;;;;;2087627;28;728;-47
2021/03/20 07:50:20;;;;;;;;;;;11.20;52.90;;;;;;2078821;28;1409;-48
2021/03/20 07:51:46;;;;;;;;;;;11.20;52.90;;;;;;2089490;28;771;-46
2021/03/20 07:53:07;;;;;;;;;;;11.20;52.50;;;;;;2074251;28;733;-46
2021/03/20 07:54:30;;;;;;;;;;;11.20;52.50;;;;;;2085062;28;747;-46
2021/03/20 07:56:08;;;;;;;;;;;11.20;52.50;;;;;;2090807;28;733;-47
2021/03/20 07:57:27;;;;;;;;;;;11.20;52.50;;;;;;2090545;28;1029;-47
2021/03/20 07:58:48;;;;;;;;;;;11.20;52.50;;;;;;2087058;28;1935;-53
2021/03/20 08:00:19;;;;;;;;;;;11.20;52.50;;;;;;2092421;28;1488;-47
2021/03/20 08:01:38;;;;;;;;;;;11.20;52.50;;;;;;2083240;28;885;-48
2021/03/20 08:03:04;;;;;;;;;;;11.20;52.60;;;;;;2095560;28;716;-46
2021/03/20 08:04:42;;;;;;;;;;;11.20;52.60;;;;;;2099177;28;746;-46
2021/03/20 08:06:14;;;;;;;;;;;11.20;52.60;;;;;;2099588;28;710;-47
2021/03/20 08:07:36;;;;;;;;;;;11.20;53.20;;;;;;2099371;28;719;-47
2021/03/20 08:09:11;;;;;;;;;;;11.30;53.20;;;;;;2099335;28;709;-47
2021/03/20 08:10:33;;;;;;;;;;;11.30;52.60;;;;;;2093675;28;813;-47
2021/03/20 08:11:58;;;;;;;;;;;11.30;52.50;;;;;;2092844;28;882;-47
2021/03/20 08:13:31;;;;;;;;;;;11.40;52.50;;;;;;2096093;28;767;-48
2021/03/20 08:14:51;;;;;;;;;;;11.40;52.90;;;;;;2092595;28;791;-46
2021/03/20 08:16:10;;;;;;;;;;;11.50;52.30;;;;;;2095376;28;761;-46
2021/03/20 08:17:29;;;;;;;;;;;11.60;52.70;;;;;;2094239;28;747;-47